createdAt,value
2023-08-08T00:00:54.123Z,100335.56
2023-08-08T00:03:26.530Z,100338.66
2023-08-08T00:05:56.448Z,100329.28
2023-08-08T00:08:26.295Z,100335.69
2023-08-08T00:10:56.189Z,100331.34
2023-08-08T00:13:26.397Z,100327.81
2023-08-08T00:15:56.310Z,100325.94
2023-08-08T00:18:28.691Z,100323.97
2023-08-08T00:20:58.423Z,100317.53
2023-08-08T00:23:28.173Z,100317.22
2023-08-08T00:25:57.919Z,100318.78
2023-08-08T00:28:27.725Z,100307.97
2023-08-08T00:30:57.495Z,100310.72
2023-08-08T00:33:30.080Z,100318.09
2023-08-08T00:36:00.026Z,100305.28
2023-08-08T00:38:30.427Z,100319.09
2023-08-08T00:41:00.218Z,100313.38
2023-08-08T00:43:29.996Z,100314.66
2023-08-08T00:46:00.029Z,100312.47
2023-08-08T00:48:32.394Z,100311.25
2023-08-08T00:51:03.537Z,100309.06
2023-08-08T00:53:34.050Z,100313.91
2023-08-08T00:56:03.967Z,100310.69
2023-08-08T00:58:33.760Z,100301.50
2023-08-08T01:01:04.512Z,100311.63
2023-08-08T01:03:36.894Z,100312.00
2023-08-08T01:06:12.693Z,100314.94
2023-08-08T01:08:47.270Z,100320.56
2023-08-08T01:11:18.022Z,100324.22
2023-08-08T01:13:48.253Z,100319.16
2023-08-08T01:16:19.962Z,100327.25
2023-08-08T01:18:53.283Z,100316.88
2023-08-08T01:21:23.071Z,100311.72
2023-08-08T01:23:57.957Z,100317.13
2023-08-08T01:26:30.679Z,100310.09
2023-08-08T01:29:00.666Z,100308.19
2023-08-08T01:31:32.042Z,100308.19
2023-08-08T01:34:01.868Z,100308.34
2023-08-08T01:36:36.348Z,100310.25
2023-08-08T01:39:06.957Z,100300.63
2023-08-08T01:41:41.913Z,100303.38
2023-08-08T01:44:12.441Z,100298.06
2023-08-08T01:46:42.682Z,100292.03
2023-08-08T01:49:12.475Z,100301.81
2023-08-08T01:51:42.391Z,100293.97
2023-08-08T01:54:12.214Z,100291.47
2023-08-08T01:56:44.560Z,100294.91
2023-08-08T01:59:16.015Z,100289.69
2023-08-08T02:01:46.091Z,100296.78
2023-08-08T02:04:15.992Z,100296.13
2023-08-08T02:06:45.982Z,100290.19
2023-08-08T02:09:16.263Z,100291.25
2023-08-08T02:11:48.789Z,100283.47
2023-08-08T02:14:18.614Z,100279.09
2023-08-08T02:16:48.400Z,100277.16
2023-08-08T02:19:18.680Z,100269.84
2023-08-08T02:21:48.635Z,100274.16
2023-08-08T02:24:21.433Z,100275.56
2023-08-08T02:26:53.788Z,100263.88
2023-08-08T02:29:23.833Z,100260.16
2023-08-08T02:31:53.658Z,100260.94
2023-08-08T02:34:23.436Z,100260.00
2023-08-08T02:36:53.550Z,100267.19
2023-08-08T02:39:23.324Z,100268.25
2023-08-08T02:41:55.812Z,100261.31
2023-08-08T02:44:27.014Z,100256.16
2023-08-08T02:46:57.226Z,100262.41
2023-08-08T02:49:27.168Z,100257.78
2023-08-08T02:51:57.455Z,100259.38
2023-08-08T02:54:30.224Z,100260.00
2023-08-08T02:57:02.728Z,100246.53
2023-08-08T02:59:32.993Z,100251.59
2023-08-08T03:02:06.383Z,100247.00
2023-08-08T03:04:38.249Z,100244.34
2023-08-08T03:07:10.150Z,100230.38
2023-08-08T03:09:41.179Z,100232.94
2023-08-08T03:12:16.037Z,100232.88
2023-08-08T03:14:46.380Z,100239.97
2023-08-08T03:17:17.553Z,100242.47
2023-08-08T03:19:47.997Z,100235.31
2023-08-08T03:22:18.666Z,100236.16
2023-08-08T03:24:48.988Z,100237.97
2023-08-08T03:27:21.373Z,100238.63
2023-08-08T03:29:55.171Z,100234.81
2023-08-08T03:32:25.997Z,100232.56
2023-08-08T03:34:55.967Z,100221.47
2023-08-08T03:37:25.929Z,100233.59
2023-08-08T03:39:55.853Z,100235.06
2023-08-08T03:42:28.201Z,100239.19
2023-08-08T03:44:58.047Z,100233.66
2023-08-08T03:47:28.090Z,100237.72
2023-08-08T03:49:59.985Z,100236.47
2023-08-08T03:52:30.510Z,100240.50
2023-08-08T03:55:01.442Z,100232.13
2023-08-08T03:57:34.060Z,100227.34
2023-08-08T04:00:03.938Z,100240.09
2023-08-08T04:02:43.282Z,100243.22
2023-08-08T04:05:13.517Z,100237.56
2023-08-08T04:07:43.314Z,100238.09
2023-08-08T04:10:14.478Z,100243.16
2023-08-08T04:12:46.830Z,100242.81
2023-08-08T04:15:16.635Z,100239.13
2023-08-08T04:17:46.531Z,100238.97
2023-08-08T04:20:17.064Z,100229.97
2023-08-08T04:22:46.840Z,100230.72
2023-08-08T04:25:16.680Z,100229.69
2023-08-08T04:27:49.209Z,100227.81
2023-08-08T04:30:19.121Z,100221.56
2023-08-08T04:32:49.225Z,100228.44
2023-08-08T04:35:19.185Z,100218.53
2023-08-08T04:37:49.204Z,100216.59
2023-08-08T04:40:19.190Z,100230.63
2023-08-08T04:42:51.590Z,100217.25
2023-08-08T04:45:22.271Z,100223.34
2023-08-08T04:47:52.161Z,100222.41
2023-08-08T04:50:22.032Z,100223.16
2023-08-08T04:52:51.802Z,100223.06
2023-08-08T04:55:21.786Z,100221.19
2023-08-08T04:57:54.199Z,100223.75
2023-08-08T05:00:24.023Z,100213.97
2023-08-08T05:02:53.867Z,100209.44
2023-08-08T05:05:23.668Z,100201.28
2023-08-08T05:07:53.419Z,100210.97
2023-08-08T05:10:24.153Z,100202.81
2023-08-08T05:12:56.523Z,100200.75
2023-08-08T05:15:26.279Z,100203.22
2023-08-08T05:17:56.476Z,100202.09
2023-08-08T05:20:26.243Z,100201.09
2023-08-08T05:22:56.022Z,100204.50
2023-08-08T05:25:26.214Z,100198.16
2023-08-08T05:27:58.646Z,100196.25
2023-08-08T05:30:28.519Z,100200.56
2023-08-08T05:32:58.411Z,100199.44
2023-08-08T05:35:28.305Z,100203.63
2023-08-08T05:37:58.049Z,100205.16
2023-08-08T05:40:27.826Z,100203.91
2023-08-08T05:43:00.192Z,100200.31
2023-08-08T05:45:29.960Z,100202.09
2023-08-08T05:48:01.651Z,100205.78
2023-08-08T05:50:31.590Z,100204.84
2023-08-08T05:53:01.482Z,100199.44
2023-08-08T05:55:31.244Z,100203.72
2023-08-08T05:58:03.684Z,100208.84
2023-08-08T06:00:34.200Z,100212.19
2023-08-08T06:03:04.336Z,100210.38
2023-08-08T06:05:34.438Z,100214.75
2023-08-08T06:08:05.421Z,100219.16
2023-08-08T06:10:35.955Z,100222.66
2023-08-08T06:13:08.652Z,100224.28
2023-08-08T06:15:38.561Z,100217.91
2023-08-08T06:18:09.055Z,100226.69
2023-08-08T06:20:38.995Z,100223.06
2023-08-08T06:23:08.789Z,100233.53
2023-08-08T06:25:39.900Z,100232.50
2023-08-08T06:28:12.777Z,100223.38
2023-08-08T06:30:42.690Z,100227.56
2023-08-08T06:33:12.518Z,100230.97
2023-08-08T06:35:43.288Z,100228.78
2023-08-08T06:38:13.179Z,100226.59
2023-08-08T06:40:42.924Z,100230.78
2023-08-08T06:43:15.413Z,100229.66
2023-08-08T06:45:45.241Z,100226.78
2023-08-08T06:48:15.102Z,100230.22
2023-08-08T06:50:44.877Z,100238.97
2023-08-08T06:53:15.060Z,100229.09
2023-08-08T06:55:44.831Z,100229.84
2023-08-08T06:58:17.269Z,100226.81
2023-08-08T07:00:47.126Z,100226.28
2023-08-08T07:03:17.043Z,100225.09
2023-08-08T07:05:47.149Z,100227.53
2023-08-08T07:08:16.971Z,100223.63
2023-08-08T07:10:46.811Z,100223.25
2023-08-08T07:13:19.322Z,100215.81
2023-08-08T07:15:49.239Z,100225.06
2023-08-08T07:18:19.005Z,100217.41
2023-08-08T07:20:48.917Z,100217.88
2023-08-08T07:23:18.713Z,100214.28
2023-08-08T07:25:51.435Z,100210.72
2023-08-08T07:28:24.061Z,100220.56
2023-08-08T07:30:53.853Z,100217.16
2023-08-08T07:33:23.628Z,100217.84
2023-08-08T07:35:53.418Z,100207.16
2023-08-08T07:38:23.206Z,100202.66
2023-08-08T07:40:53.307Z,100200.72
2023-08-08T07:43:25.669Z,100198.81
2023-08-08T07:45:55.454Z,100204.16
2023-08-08T07:48:25.220Z,100201.50
2023-08-08T07:50:55.110Z,100201.28
2023-08-08T07:53:24.857Z,100210.16
2023-08-08T07:55:54.691Z,100202.50
2023-08-08T07:58:28.415Z,100206.91
2023-08-08T08:00:58.513Z,100208.91
2023-08-08T08:03:28.537Z,100197.34
2023-08-08T08:05:58.428Z,100202.13
2023-08-08T08:08:28.501Z,100204.34
2023-08-08T08:10:58.349Z,100204.59
2023-08-08T08:13:30.735Z,100210.47
2023-08-08T08:16:00.666Z,100210.50
2023-08-08T08:18:30.435Z,100212.75
2023-08-08T08:21:00.286Z,100207.66
2023-08-08T08:23:30.168Z,100211.78
2023-08-08T08:25:59.920Z,100215.97
2023-08-08T08:28:32.372Z,100213.41
2023-08-08T08:31:08.168Z,100225.28
2023-08-08T08:33:37.936Z,100210.84
2023-08-08T08:36:08.103Z,100207.31
2023-08-08T08:38:37.891Z,100207.69
2023-08-08T08:41:07.798Z,100198.41
2023-08-08T08:43:40.195Z,100199.81
2023-08-08T08:46:10.627Z,100194.00
2023-08-08T08:48:40.701Z,100194.22
2023-08-08T08:51:10.851Z,100194.03
2023-08-08T08:53:47.601Z,100202.91
2023-08-08T08:56:18.088Z,100206.16
2023-08-08T08:58:50.486Z,100204.13
2023-08-08T09:01:21.564Z,100208.03
2023-08-08T09:03:51.548Z,100203.66
2023-08-08T09:06:22.133Z,100205.25
2023-08-08T09:08:55.304Z,100200.13
2023-08-08T09:11:27.497Z,100203.78
2023-08-08T09:14:01.064Z,100208.63
2023-08-08T09:16:30.954Z,100207.22
2023-08-08T09:19:02.156Z,100201.34
2023-08-08T09:21:31.958Z,100216.19
2023-08-08T09:24:02.069Z,100213.06
2023-08-08T09:26:32.329Z,100200.19
2023-08-08T09:29:05.137Z,100203.25
2023-08-08T09:31:34.968Z,100204.88
2023-08-08T09:34:07.304Z,100204.38
2023-08-08T09:36:38.849Z,100199.28
2023-08-08T09:39:09.259Z,100209.28
2023-08-08T09:41:39.081Z,100214.75
2023-08-08T09:44:12.366Z,100213.03
2023-08-08T09:46:42.871Z,100217.19
2023-08-08T09:49:13.734Z,100207.88
2023-08-08T09:51:43.977Z,100214.56
2023-08-08T09:54:14.379Z,100217.34
2023-08-08T09:56:44.236Z,100216.53
2023-08-08T09:59:17.203Z,100213.34
2023-08-08T10:01:47.383Z,100216.44
2023-08-08T10:04:17.405Z,100209.25
2023-08-08T10:06:47.249Z,100202.47
2023-08-08T10:09:17.660Z,100196.38
2023-08-08T10:11:47.900Z,100206.97
2023-08-08T10:14:20.840Z,100210.19
2023-08-08T10:16:51.776Z,100207.34
2023-08-08T10:19:26.057Z,100213.88
2023-08-08T10:22:01.307Z,100209.56
2023-08-08T10:24:37.176Z,100204.16
2023-08-08T10:27:08.177Z,100209.75
2023-08-08T10:29:42.474Z,100204.50
2023-08-08T10:32:12.343Z,100209.19
2023-08-08T10:34:45.177Z,100211.84
2023-08-08T10:37:16.789Z,100209.84
2023-08-08T10:39:58.177Z,100213.28
2023-08-08T10:42:29.440Z,100213.28
2023-08-08T10:45:03.712Z,100202.50
2023-08-08T10:47:35.752Z,100208.91
2023-08-08T10:50:11.107Z,100203.50
2023-08-08T10:52:43.308Z,100207.13
2023-08-08T10:55:22.490Z,100212.16
2023-08-08T10:57:59.813Z,100207.78
2023-08-08T11:00:33.968Z,100214.88
2023-08-08T11:03:05.915Z,100214.53
2023-08-08T11:05:37.204Z,100212.81
2023-08-08T11:08:10.441Z,100212.97
2023-08-08T11:10:40.742Z,100213.16
2023-08-08T11:13:11.610Z,100215.47
2023-08-08T11:15:44.045Z,100207.81
2023-08-08T11:18:14.305Z,100206.41
2023-08-08T11:20:45.535Z,100206.03
2023-08-08T11:23:15.450Z,100207.56
2023-08-08T11:25:46.855Z,100206.44
2023-08-08T11:28:17.213Z,100205.47
2023-08-08T11:30:50.027Z,100195.44
2023-08-08T11:33:20.073Z,100197.44
2023-08-08T11:35:50.823Z,100190.59
2023-08-08T11:38:21.644Z,100185.44
2023-08-08T11:40:53.600Z,100181.22
2023-08-08T11:43:24.014Z,100184.31
2023-08-08T11:45:56.768Z,100187.88
2023-08-08T11:48:26.884Z,100189.91
2023-08-08T11:50:56.968Z,100190.97
2023-08-08T11:53:27.373Z,100193.03
2023-08-08T11:55:58.557Z,100199.22
2023-08-08T11:58:28.434Z,100193.25
2023-08-08T12:01:01.424Z,100196.31
2023-08-08T12:03:31.293Z,100197.56
2023-08-08T12:06:02.246Z,100192.81
2023-08-08T12:08:34.465Z,100200.50
2023-08-08T12:11:06.594Z,100193.94
2023-08-08T12:13:37.954Z,100194.03
2023-08-08T12:16:16.904Z,100198.31
2023-08-08T12:18:47.978Z,100202.97
2023-08-08T12:21:17.840Z,100198.00
2023-08-08T12:23:47.571Z,100201.94
2023-08-08T12:26:17.350Z,100216.25
2023-08-08T12:28:47.098Z,100230.84
2023-08-08T12:31:19.485Z,100230.97
2023-08-08T12:33:50.151Z,100235.38
2023-08-08T12:36:20.027Z,100240.53
2023-08-08T12:38:50.376Z,100242.13
2023-08-08T12:41:20.267Z,100246.75
2023-08-08T12:43:51.147Z,100225.53
2023-08-08T12:46:23.675Z,100221.69
2023-08-08T12:48:53.872Z,100220.19
2023-08-08T12:51:23.740Z,100210.34
2023-08-08T12:53:54.136Z,100214.00
2023-08-08T12:56:23.900Z,100213.78
2023-08-08T12:58:53.652Z,100210.56
2023-08-08T13:01:26.404Z,100214.91
2023-08-08T13:06:33.046Z,100212.31
2023-08-08T13:09:02.810Z,100212.50
2023-08-08T13:11:32.696Z,100204.84
2023-08-08T13:14:02.482Z,100196.09
2023-08-08T13:16:35.138Z,100203.19
2023-08-08T13:19:05.331Z,100199.72
2023-08-08T13:21:35.119Z,100191.03
2023-08-08T13:24:05.432Z,100192.28
2023-08-08T13:26:35.279Z,100197.44
2023-08-08T13:29:04.999Z,100195.50
2023-08-08T13:31:37.467Z,100184.19
2023-08-08T13:34:07.647Z,100184.91
2023-08-08T13:36:37.494Z,100184.75
2023-08-08T13:39:08.209Z,100190.78
2023-08-08T13:41:37.967Z,100186.78
2023-08-08T13:44:08.341Z,100187.88
2023-08-08T13:46:40.850Z,100185.31
2023-08-08T13:49:10.671Z,100190.56
2023-08-08T13:51:41.712Z,100184.94
2023-08-08T13:54:13.602Z,100188.59
2023-08-08T13:56:43.404Z,100189.69
2023-08-08T13:59:13.236Z,100184.84
2023-08-08T14:01:45.813Z,100187.03
2023-08-08T14:04:15.609Z,100187.31
2023-08-08T14:06:45.387Z,100191.06
2023-08-08T14:09:17.168Z,100185.06
2023-08-08T14:11:48.624Z,100175.91
2023-08-08T14:14:18.399Z,100177.19
2023-08-08T14:16:50.907Z,100172.50
2023-08-08T14:19:20.892Z,100170.06
2023-08-08T14:21:50.967Z,100167.19
2023-08-08T14:24:21.245Z,100164.38
2023-08-08T14:26:51.037Z,100170.88
2023-08-08T14:29:20.783Z,100165.09
2023-08-08T14:32:00.463Z,100165.13
2023-08-08T14:34:34.918Z,100174.97
2023-08-08T14:37:05.710Z,100158.53
2023-08-08T14:39:35.551Z,100177.38
2023-08-08T14:42:05.637Z,100176.38
2023-08-08T14:44:35.688Z,100180.66
2023-08-08T14:47:08.832Z,100169.91
2023-08-08T14:49:38.787Z,100181.16
2023-08-08T14:52:10.027Z,100183.50
2023-08-08T14:54:39.818Z,100182.81
2023-08-08T14:57:09.687Z,100177.38
2023-08-08T14:59:39.424Z,100174.69
2023-08-08T15:02:11.854Z,100183.69
2023-08-08T15:04:41.713Z,100184.69
2023-08-08T15:07:11.498Z,100188.84
2023-08-08T15:09:41.349Z,100183.78
2023-08-08T15:12:12.040Z,100181.81
2023-08-08T15:14:41.771Z,100177.16
2023-08-08T15:17:14.146Z,100184.81
2023-08-08T15:19:43.987Z,100178.72
2023-08-08T15:22:14.014Z,100169.47
2023-08-08T15:24:44.272Z,100170.16
2023-08-08T15:27:14.005Z,100180.00
2023-08-08T15:29:43.722Z,100171.06
2023-08-08T15:32:16.092Z,100172.88
2023-08-08T15:34:45.820Z,100177.75
2023-08-08T15:37:15.587Z,100171.34
2023-08-08T15:39:45.347Z,100161.75
2023-08-08T15:42:15.114Z,100172.75
2023-08-08T15:44:44.872Z,100168.38
2023-08-08T15:47:17.290Z,100176.31
2023-08-08T15:49:47.093Z,100179.97
2023-08-08T15:52:16.893Z,100172.31
2023-08-08T15:54:46.666Z,100163.66
2023-08-08T15:57:16.432Z,100168.41
2023-08-08T15:59:46.212Z,100169.13
2023-08-08T16:02:19.262Z,100168.06
2023-08-08T16:04:50.104Z,100171.31
2023-08-08T16:07:20.707Z,100164.97
2023-08-08T16:09:50.597Z,100172.03
2023-08-08T16:12:20.422Z,100172.19
2023-08-08T16:14:50.154Z,100171.72
2023-08-08T16:17:22.549Z,100174.31
2023-08-08T16:19:52.333Z,100171.69
2023-08-08T16:22:22.094Z,100170.53
2023-08-08T16:24:51.845Z,100178.38
2023-08-08T16:27:21.620Z,100180.59
2023-08-08T16:29:51.538Z,100171.56
2023-08-08T16:32:23.880Z,100175.31
2023-08-08T16:34:53.682Z,100173.81
2023-08-08T16:37:23.628Z,100167.66
2023-08-08T16:39:53.633Z,100165.25
2023-08-08T16:42:24.005Z,100168.69
2023-08-08T16:44:53.824Z,100162.56
2023-08-08T16:47:26.172Z,100162.56
2023-08-08T16:49:55.982Z,100155.50
2023-08-08T16:52:25.967Z,100160.16
2023-08-08T16:54:55.788Z,100167.50
2023-08-08T16:57:25.555Z,100175.09
2023-08-08T16:59:55.543Z,100169.53
2023-08-08T17:02:28.086Z,100175.81
2023-08-08T17:04:57.852Z,100170.38
2023-08-08T17:07:30.465Z,100173.44
2023-08-08T17:10:00.406Z,100172.41
2023-08-08T17:12:30.410Z,100165.97
2023-08-08T17:15:00.193Z,100170.25
2023-08-08T17:17:32.643Z,100166.66
2023-08-08T17:20:05.419Z,100172.88
2023-08-08T17:22:35.618Z,100165.22
2023-08-08T17:25:05.428Z,100170.13
2023-08-08T17:27:36.824Z,100166.72
2023-08-08T17:30:10.006Z,100161.50
2023-08-08T17:32:42.943Z,100162.38
2023-08-08T17:35:13.430Z,100156.03
2023-08-08T17:37:43.257Z,100150.53
2023-08-08T17:40:13.753Z,100168.75
2023-08-08T17:42:43.653Z,100160.13
2023-08-08T17:45:16.539Z,100158.53
2023-08-08T17:47:48.938Z,100156.00
2023-08-08T17:50:18.944Z,100158.88
2023-08-08T17:52:49.047Z,100150.13
2023-08-08T17:55:19.595Z,100149.50
2023-08-08T17:57:51.271Z,100156.94
2023-08-08T18:00:22.918Z,100145.59
2023-08-08T18:02:56.935Z,100135.97
2023-08-08T18:05:27.065Z,100148.66
2023-08-08T18:07:57.044Z,100146.09
2023-08-08T18:10:27.070Z,100141.72
2023-08-08T18:12:57.029Z,100147.31
2023-08-08T18:15:26.820Z,100149.34
2023-08-08T18:17:59.685Z,100157.72
2023-08-08T18:20:29.570Z,100163.44
2023-08-08T18:22:59.508Z,100154.19
2023-08-08T18:25:29.785Z,100161.00
2023-08-08T18:27:59.597Z,100157.91
2023-08-08T18:30:29.658Z,100150.34
2023-08-08T18:33:02.128Z,100151.66
2023-08-08T18:35:32.142Z,100149.44
2023-08-08T18:38:02.084Z,100140.91
2023-08-08T18:40:31.951Z,100152.81
2023-08-08T18:43:02.129Z,100153.97
2023-08-08T18:45:32.003Z,100148.84
2023-08-08T18:48:04.503Z,100147.16
2023-08-08T18:50:34.367Z,100144.78
2023-08-08T18:53:04.607Z,100154.66
2023-08-08T18:55:34.426Z,100156.69
2023-08-08T18:58:04.457Z,100150.63
2023-08-08T19:00:34.277Z,100170.41
2023-08-08T19:03:07.427Z,100165.31
2023-08-08T19:05:37.333Z,100161.97
2023-08-08T19:08:07.749Z,100161.47
2023-08-08T19:10:37.727Z,100155.50
2023-08-08T19:13:07.954Z,100154.84
2023-08-08T19:15:37.773Z,100146.31
2023-08-08T19:18:10.407Z,100161.09
2023-08-08T19:20:40.381Z,100161.41
2023-08-08T19:23:11.409Z,100166.25
2023-08-08T19:25:41.389Z,100164.78
2023-08-08T19:28:11.739Z,100170.41
2023-08-08T19:30:41.736Z,100168.09
2023-08-08T19:33:16.811Z,100156.97
2023-08-08T19:35:46.638Z,100160.00
2023-08-08T19:38:16.455Z,100164.56
2023-08-08T19:40:46.323Z,100167.47
2023-08-08T19:43:16.792Z,100160.63
2023-08-08T19:45:49.276Z,100163.53
2023-08-08T19:48:21.701Z,100164.59
2023-08-08T19:50:51.729Z,100166.50
2023-08-08T19:53:22.057Z,100165.88
2023-08-08T19:55:54.046Z,100170.47
2023-08-08T19:58:26.282Z,100170.22
2023-08-08T20:00:56.807Z,100173.72
2023-08-08T20:03:30.883Z,100174.69
2023-08-08T20:06:01.021Z,100160.75
2023-08-08T20:08:32.241Z,100170.75
2023-08-08T20:11:02.128Z,100172.59
2023-08-08T20:13:31.953Z,100176.19
2023-08-08T20:16:01.800Z,100177.84
2023-08-08T20:18:34.568Z,100171.38
2023-08-08T20:21:05.485Z,100156.72
2023-08-08T20:23:35.360Z,100154.44
2023-08-08T20:26:05.589Z,100167.19
2023-08-08T20:28:35.418Z,100161.13
2023-08-08T20:31:07.800Z,100172.00
2023-08-08T20:33:46.193Z,100167.81
2023-08-08T20:36:16.914Z,100168.75
2023-08-08T20:38:47.646Z,100167.03
2023-08-08T20:41:17.492Z,100164.47
2023-08-08T20:43:48.184Z,100162.66
2023-08-08T20:46:18.095Z,100167.13
2023-08-08T20:48:52.121Z,100161.91
2023-08-08T20:51:22.326Z,100159.25
2023-08-08T20:53:52.274Z,100149.44
2023-08-08T20:56:22.111Z,100143.25
2023-08-08T20:58:53.582Z,100138.88
2023-08-08T21:01:23.477Z,100130.16
2023-08-08T21:03:56.017Z,100125.75
2023-08-08T21:06:25.908Z,100125.97
2023-08-08T21:08:55.832Z,100126.91
2023-08-08T21:11:25.615Z,100128.81
2023-08-08T21:13:55.421Z,100119.97
2023-08-08T21:16:25.343Z,100114.63
2023-08-08T21:18:57.996Z,100120.81
2023-08-08T21:21:28.022Z,100128.69
2023-08-08T21:23:58.065Z,100125.00
2023-08-08T21:26:38.402Z,100124.03
2023-08-08T21:29:09.903Z,100118.50
2023-08-08T21:31:39.849Z,100116.72
2023-08-08T21:34:12.513Z,100118.34
2023-08-08T21:36:43.118Z,100124.41
2023-08-08T21:39:12.906Z,100113.66
2023-08-08T21:41:42.710Z,100110.88
2023-08-08T21:44:12.693Z,100117.00
2023-08-08T21:46:42.483Z,100117.81
2023-08-08T21:49:15.132Z,100102.72
2023-08-08T21:51:45.233Z,100098.34
2023-08-08T21:54:15.262Z,100098.34
2023-08-08T21:56:46.674Z,100086.91
2023-08-08T21:59:16.616Z,100085.13
2023-08-08T22:01:46.680Z,100077.88
2023-08-08T22:04:19.511Z,100076.91
2023-08-08T22:06:49.587Z,100071.47
2023-08-08T22:09:19.673Z,100069.69
2023-08-08T22:11:49.489Z,100067.88
2023-08-08T22:14:19.788Z,100068.63
2023-08-08T22:16:49.645Z,100064.16
2023-08-08T22:19:22.777Z,100066.72
2023-08-08T22:21:52.815Z,100066.63
2023-08-08T22:24:22.708Z,100054.13
2023-08-08T22:26:52.543Z,100064.06
2023-08-08T22:29:22.642Z,100064.06
2023-08-08T22:31:54.971Z,100049.88
2023-08-08T22:34:27.679Z,100049.00
2023-08-08T22:36:57.536Z,100044.44
2023-08-08T22:39:27.382Z,100042.72
2023-08-08T22:41:57.197Z,100046.34
2023-08-08T22:44:27.006Z,100040.19
2023-08-08T22:46:56.938Z,100039.31
2023-08-08T22:49:29.523Z,100029.63
2023-08-08T22:51:59.533Z,100022.69
2023-08-08T22:54:29.431Z,100024.78
2023-08-08T22:56:59.485Z,100023.19
2023-08-08T22:59:29.659Z,100015.38
2023-08-08T23:02:01.356Z,100017.22
2023-08-08T23:04:33.849Z,100022.44
2023-08-08T23:07:03.864Z,100015.19
2023-08-08T23:09:34.181Z,100018.63
2023-08-08T23:12:04.347Z,100010.41
2023-08-08T23:14:34.228Z,100012.03
2023-08-08T23:17:04.371Z,100008.41
2023-08-08T23:19:36.877Z,100009.16
2023-08-08T23:22:06.865Z,100010.97
2023-08-08T23:24:36.727Z,100002.88
2023-08-08T23:27:06.797Z,100006.38
2023-08-08T23:29:36.911Z,100008.09
2023-08-08T23:32:07.553Z,100002.66
2023-08-08T23:34:39.966Z,99996.38
2023-08-08T23:37:19.794Z,99999.88
2023-08-08T23:39:52.098Z,99990.09
2023-08-08T23:42:21.965Z,99985.81
2023-08-08T23:44:52.260Z,99991.25
2023-08-08T23:47:23.061Z,99996.88
2023-08-08T23:49:58.240Z,99992.72
2023-08-08T23:52:28.497Z,99986.66
2023-08-08T23:54:58.322Z,99984.94
2023-08-08T23:57:28.331Z,99988.53
2023-08-08T23:59:58.159Z,99989.50
